createdAt,value
2023-01-01T00:01:26.217Z,13.00
2023-01-01T00:03:57.739Z,13.00
2023-01-01T00:06:25.202Z,13.00
2023-01-01T00:09:14.920Z,13.00
2023-01-01T00:11:41.871Z,13.00
2023-01-01T00:14:12.225Z,13.00
2023-01-01T00:16:39.824Z,12.90
2023-01-01T00:19:07.094Z,13.00
2023-01-01T00:21:35.245Z,12.90
2023-01-01T00:24:02.255Z,12.90
2023-01-01T00:26:34.487Z,12.90
2023-01-01T00:29:02.502Z,12.90
2023-01-01T00:31:29.374Z,12.90
2023-01-01T00:33:56.704Z,12.90
2023-01-01T00:36:25.909Z,12.90
2023-01-01T00:38:53.318Z,12.90
2023-01-01T00:41:20.595Z,12.90
2023-01-01T00:43:47.647Z,12.90
2023-01-01T00:46:15.179Z,12.90
2023-01-01T00:48:42.248Z,12.90
2023-01-01T00:51:09.304Z,12.90
2023-01-01T00:53:39.177Z,12.80
2023-01-01T00:56:06.086Z,12.80
2023-01-01T00:58:33.476Z,12.90
2023-01-01T01:01:00.607Z,12.90
2023-01-01T01:03:30.827Z,12.80
2023-01-01T01:06:10.308Z,12.90
2023-01-01T01:08:39.498Z,12.80
2023-01-01T01:11:09.049Z,12.80
2023-01-01T01:13:36.230Z,12.80
2023-01-01T01:16:12.548Z,12.80
2023-01-01T01:18:39.544Z,12.80
2023-01-01T01:21:06.206Z,12.80
2023-01-01T01:23:33.501Z,12.80
2023-01-01T01:26:18.940Z,12.80
2023-01-01T01:28:49.819Z,12.80
2023-01-01T01:31:18.404Z,12.80
2023-01-01T01:33:46.602Z,12.80
2023-01-01T01:36:15.443Z,12.80
2023-01-01T01:38:42.607Z,12.80
2023-01-01T01:41:25.680Z,12.70
2023-01-01T01:44:03.728Z,12.70
2023-01-01T01:46:41.765Z,12.70
2023-01-01T01:49:18.423Z,12.70
2023-01-01T01:51:46.265Z,12.70
2023-01-01T01:54:22.658Z,12.70
2023-01-01T01:57:08.028Z,12.70
2023-01-01T01:59:41.074Z,12.70
2023-01-01T02:02:14.775Z,12.60
2023-01-01T02:04:42.905Z,12.60
2023-01-01T02:07:09.849Z,12.70
2023-01-01T02:09:37.183Z,12.60
2023-01-01T02:12:03.976Z,12.60
2023-01-01T02:14:30.668Z,12.60
2023-01-01T02:17:07.518Z,12.70
2023-01-01T02:19:58.505Z,12.60
2023-01-01T02:22:37.989Z,12.60
2023-01-01T02:25:32.192Z,12.60
2023-01-01T02:28:16.000Z,12.70
2023-01-01T02:30:45.698Z,12.60
2023-01-01T02:33:17.168Z,12.60
2023-01-01T02:36:02.023Z,12.60
2023-01-01T02:38:43.020Z,12.60
2023-01-01T02:41:12.274Z,12.50
2023-01-01T02:43:40.392Z,12.60
2023-01-01T02:46:09.106Z,12.60
2023-01-01T02:48:42.238Z,12.60
2023-01-01T02:51:27.317Z,12.50
2023-01-01T02:54:08.760Z,12.60
2023-01-01T02:56:56.262Z,12.60
2023-01-01T02:59:47.395Z,12.60
2023-01-01T03:02:16.894Z,12.50
2023-01-01T03:05:07.676Z,12.50
2023-01-01T03:07:52.907Z,12.60
2023-01-01T03:10:42.337Z,12.60
2023-01-01T03:13:21.860Z,12.60
2023-01-01T03:16:00.554Z,12.50
2023-01-01T03:18:37.274Z,12.60
2023-01-01T03:21:07.071Z,12.60
2023-01-01T03:23:37.293Z,12.60
2023-01-01T03:26:09.502Z,12.60
2023-01-01T03:28:42.329Z,12.60
2023-01-01T03:31:09.840Z,12.60
2023-01-01T03:33:45.193Z,12.60
2023-01-01T03:36:30.665Z,12.60
2023-01-01T03:39:09.667Z,12.60
2023-01-01T03:41:58.121Z,12.50
2023-01-01T03:44:45.512Z,12.50
2023-01-01T03:47:12.567Z,12.60
2023-01-01T03:49:39.536Z,12.50
2023-01-01T03:52:21.882Z,12.60
2023-01-01T03:55:19.488Z,12.60
2023-01-01T03:58:16.797Z,12.60
2023-01-01T04:00:57.824Z,12.60
2023-01-01T04:03:27.431Z,12.60
2023-01-01T04:05:54.572Z,12.60
2023-01-01T04:08:21.809Z,12.60
2023-01-01T04:10:56.601Z,12.50
2023-01-01T04:13:23.860Z,12.60
2023-01-01T04:15:50.929Z,12.50
2023-01-01T04:18:17.691Z,12.60
2023-01-01T04:20:44.360Z,12.60
2023-01-01T04:23:10.975Z,12.50
2023-01-01T04:25:37.614Z,12.50
2023-01-01T04:28:04.498Z,12.50
2023-01-01T04:30:31.167Z,12.60
2023-01-01T04:32:57.963Z,12.50
2023-01-01T04:35:24.664Z,12.50
2023-01-01T04:37:51.284Z,12.50
2023-01-01T04:40:18.154Z,12.50
2023-01-01T04:42:44.824Z,12.50
2023-01-01T04:45:14.843Z,12.50
2023-01-01T04:47:41.677Z,12.50
2023-01-01T04:50:08.664Z,12.50
2023-01-01T04:52:35.364Z,12.50
2023-01-01T04:55:02.005Z,12.50
2023-01-01T04:57:31.695Z,12.50
2023-01-01T04:59:58.404Z,12.50
2023-01-01T05:02:25.754Z,12.60
2023-01-01T05:04:52.493Z,12.60
2023-01-01T05:07:19.117Z,12.50
2023-01-01T05:09:45.762Z,12.60
2023-01-01T05:12:12.379Z,12.60
2023-01-01T05:14:39.045Z,12.60
2023-01-01T05:17:05.673Z,12.60
2023-01-01T05:19:32.379Z,12.60
2023-01-01T05:21:59.101Z,12.60
2023-01-01T05:24:25.839Z,12.60
2023-01-01T05:26:53.182Z,12.60
2023-01-01T05:29:19.919Z,12.60
2023-01-01T05:31:46.705Z,12.60
2023-01-01T05:34:13.615Z,12.60
2023-01-01T05:36:40.357Z,12.60
2023-01-01T05:39:12.102Z,12.60
2023-01-01T05:41:39.891Z,12.60
2023-01-01T05:44:07.260Z,12.60
2023-01-01T05:46:34.263Z,12.60
2023-01-01T05:49:01.084Z,12.60
2023-01-01T05:51:29.418Z,12.60
2023-01-01T05:53:57.212Z,12.60
2023-01-01T05:56:25.750Z,12.60
2023-01-01T05:58:52.442Z,12.60
2023-01-01T06:01:22.435Z,12.60
2023-01-01T06:03:50.205Z,12.60
2023-01-01T06:06:22.289Z,12.60
2023-01-01T06:08:53.541Z,12.60
2023-01-01T06:11:20.668Z,12.60
2023-01-01T06:13:47.566Z,12.60
2023-01-01T06:16:14.772Z,12.60
2023-01-01T06:18:41.511Z,12.60
2023-01-01T06:21:13.996Z,12.60
2023-01-01T06:23:40.967Z,12.60
2023-01-01T06:26:13.489Z,12.60
2023-01-01T06:28:41.225Z,12.60
2023-01-01T06:31:11.647Z,12.60
2023-01-01T06:33:39.289Z,12.60
2023-01-01T06:36:08.705Z,12.60
2023-01-01T06:38:37.824Z,12.60
2023-01-01T06:41:10.817Z,12.60
2023-01-01T06:43:38.243Z,12.60
2023-01-01T06:46:17.488Z,12.60
2023-01-01T06:48:45.493Z,12.60
2023-01-01T06:51:15.788Z,12.60
2023-01-01T06:53:42.939Z,12.60
2023-01-01T06:56:10.058Z,12.60
2023-01-01T06:58:36.921Z,12.60
2023-01-01T07:01:09.432Z,12.60
2023-01-01T07:03:37.307Z,12.60
2023-01-01T07:06:04.845Z,12.60
2023-01-01T07:08:31.469Z,12.70
2023-01-01T07:10:58.225Z,12.60
2023-01-01T07:13:25.924Z,12.60
2023-01-01T07:15:53.156Z,12.60
2023-01-01T07:18:21.054Z,12.60
2023-01-01T07:20:56.711Z,12.70
2023-01-01T07:23:24.124Z,12.60
2023-01-01T07:25:52.314Z,12.60
2023-01-01T07:28:19.474Z,12.60
2023-01-01T07:30:46.238Z,12.60
2023-01-01T07:33:15.137Z,12.60
2023-01-01T07:35:42.038Z,12.60
2023-01-01T07:38:08.976Z,12.70
2023-01-01T07:40:35.603Z,12.70
2023-01-01T07:43:02.948Z,12.60
2023-01-01T07:45:29.835Z,12.60
2023-01-01T07:47:57.878Z,12.60
2023-01-01T07:50:26.295Z,12.60
2023-01-01T07:52:52.962Z,12.70
2023-01-01T07:55:20.845Z,12.70
2023-01-01T07:57:48.393Z,12.70
2023-01-01T08:00:17.850Z,12.60
2023-01-01T08:02:45.061Z,12.70
2023-01-01T08:05:11.946Z,12.70
2023-01-01T08:07:39.336Z,12.70
2023-01-01T08:10:07.339Z,12.70
2023-01-01T08:12:34.124Z,12.70
2023-01-01T08:15:00.766Z,12.70
2023-01-01T08:17:27.397Z,12.70
2023-01-01T08:19:54.135Z,12.70
2023-01-01T08:22:20.847Z,12.70
2023-01-01T08:24:47.949Z,12.70
2023-01-01T08:27:15.826Z,12.70
2023-01-01T08:29:45.869Z,12.70
2023-01-01T08:32:12.860Z,12.70
2023-01-01T08:34:39.499Z,12.70
2023-01-01T08:37:07.168Z,12.70
2023-01-01T08:39:33.895Z,12.70
2023-01-01T08:42:00.479Z,12.70
2023-01-01T08:44:27.078Z,12.70
2023-01-01T08:46:53.903Z,12.70
2023-01-01T08:49:20.550Z,12.70
2023-01-01T08:51:47.182Z,12.70
2023-01-01T08:54:13.863Z,12.70
2023-01-01T08:56:40.465Z,12.70
2023-01-01T08:59:07.204Z,12.70
2023-01-01T09:01:33.973Z,12.70
2023-01-01T09:04:00.665Z,12.60
2023-01-01T09:06:27.308Z,12.60
2023-01-01T09:08:54.023Z,12.60
2023-01-01T09:11:28.319Z,12.60
2023-01-01T09:13:55.428Z,12.60
2023-01-01T09:16:23.070Z,12.70
2023-01-01T09:18:50.179Z,12.70
2023-01-01T09:21:17.105Z,12.70
2023-01-01T09:23:43.767Z,12.70
2023-01-01T09:26:10.924Z,12.70
2023-01-01T09:28:38.429Z,12.70
2023-01-01T09:31:08.861Z,12.70
2023-01-01T09:33:35.669Z,12.70
2023-01-01T09:36:25.816Z,12.70
2023-01-01T09:38:53.920Z,12.70
2023-01-01T09:41:50.693Z,12.70
2023-01-01T09:44:32.155Z,12.70
2023-01-01T09:47:02.340Z,12.70
2023-01-01T09:49:41.566Z,12.70
2023-01-01T09:52:13.668Z,12.70
2023-01-01T09:54:47.672Z,12.70
2023-01-01T09:57:19.830Z,12.80
2023-01-01T09:59:47.044Z,12.80
2023-01-01T10:02:32.213Z,12.80
2023-01-01T10:05:34.248Z,12.80
2023-01-01T10:08:30.871Z,12.80
2023-01-01T10:11:15.509Z,12.80
2023-01-01T10:13:46.170Z,12.80
2023-01-01T10:16:13.206Z,12.80
2023-01-01T10:18:41.838Z,12.80
2023-01-01T10:21:17.925Z,12.80
2023-01-01T10:23:52.171Z,12.80
2023-01-01T10:26:23.609Z,12.80
2023-01-01T10:29:19.184Z,12.80
2023-01-01T10:31:47.326Z,12.80
2023-01-01T10:34:22.394Z,12.80
2023-01-01T10:36:54.357Z,12.80
2023-01-01T10:39:21.120Z,12.80
2023-01-01T10:41:48.113Z,12.80
2023-01-01T10:44:26.093Z,12.80
2023-01-01T10:46:57.664Z,12.80
2023-01-01T10:49:24.470Z,12.90
2023-01-01T10:51:53.708Z,12.90
2023-01-01T10:54:33.144Z,12.90
2023-01-01T10:57:20.801Z,12.90
2023-01-01T10:59:53.940Z,13.00
2023-01-01T11:02:22.622Z,13.00
2023-01-01T11:04:51.286Z,13.00
2023-01-01T11:07:30.337Z,13.10
2023-01-01T11:10:04.003Z,13.10
2023-01-01T11:15:42.518Z,13.10
2023-01-01T11:18:20.678Z,13.20
2023-01-01T11:20:58.697Z,13.20
2023-01-01T11:23:36.329Z,13.20
2023-01-01T11:26:07.272Z,13.20
2023-01-01T11:28:35.620Z,13.20
2023-01-01T11:31:10.985Z,13.20
2023-01-01T11:33:45.808Z,13.30
2023-01-01T11:36:20.300Z,13.20
2023-01-01T11:39:04.197Z,13.30
2023-01-01T11:41:48.030Z,13.30
2023-01-01T11:44:35.936Z,13.30
2023-01-01T11:47:04.257Z,13.30
2023-01-01T11:49:31.409Z,13.30
2023-01-01T11:51:58.759Z,13.30
2023-01-01T11:54:33.008Z,13.30
2023-01-01T11:57:14.406Z,13.30
2023-01-01T11:59:49.301Z,13.30
2023-01-01T12:02:24.409Z,13.30
2023-01-01T12:05:00.903Z,13.30
2023-01-01T12:07:36.693Z,13.30
2023-01-01T12:10:25.487Z,13.30
2023-01-01T12:13:15.078Z,13.30
2023-01-01T12:15:55.718Z,13.30
2023-01-01T12:18:27.692Z,13.30
2023-01-01T12:21:14.563Z,13.30
2023-01-01T12:23:41.357Z,13.30
2023-01-01T12:26:37.661Z,13.30
2023-01-01T12:29:38.153Z,13.30
2023-01-01T12:32:33.112Z,13.30
2023-01-01T12:35:03.316Z,13.20
2023-01-01T12:38:00.555Z,13.30
2023-01-01T12:40:38.614Z,13.30
2023-01-01T12:43:49.430Z,13.30
2023-01-01T12:46:41.070Z,13.30
2023-01-01T12:49:43.641Z,13.30
2023-01-01T12:52:26.560Z,13.20
2023-01-01T12:55:03.754Z,13.30
2023-01-01T12:57:51.376Z,13.30
2023-01-01T13:00:21.216Z,13.30
2023-01-01T13:02:55.536Z,13.30
2023-01-01T13:05:35.132Z,13.30
2023-01-01T13:08:04.739Z,13.30
2023-01-01T13:10:35.592Z,13.30
2023-01-01T13:13:03.211Z,13.30
2023-01-01T13:15:39.487Z,13.30
2023-01-01T13:18:15.357Z,13.30
2023-01-01T13:20:46.763Z,13.30
2023-01-01T13:23:31.672Z,13.30
2023-01-01T13:26:22.963Z,13.30
2023-01-01T13:28:58.739Z,13.30
2023-01-01T13:31:40.927Z,13.30
2023-01-01T13:34:42.466Z,13.30
2023-01-01T13:37:14.811Z,13.30
2023-01-01T13:40:24.164Z,13.30
2023-01-01T13:42:59.159Z,13.30
2023-01-01T13:48:48.923Z,13.30
2023-01-01T13:52:07.041Z,13.30
2023-01-01T13:55:07.360Z,13.30
2023-01-01T13:57:59.791Z,13.30
2023-01-01T14:00:35.836Z,13.30
2023-01-01T14:03:16.563Z,13.30
2023-01-01T14:05:45.974Z,13.30
2023-01-01T14:08:33.033Z,13.30
2023-01-01T14:11:01.896Z,13.30
2023-01-01T14:13:30.289Z,13.30
2023-01-01T14:15:58.609Z,13.30
2023-01-01T14:18:42.037Z,13.30
2023-01-01T14:21:11.842Z,13.30
2023-01-01T14:23:49.844Z,13.30
2023-01-01T14:26:20.968Z,13.20
2023-01-01T14:28:48.099Z,13.20
2023-01-01T14:31:20.907Z,13.20
2023-01-01T14:33:47.898Z,13.20
2023-01-01T14:36:22.414Z,13.20
2023-01-01T14:38:52.598Z,13.20
2023-01-01T14:41:37.717Z,13.10
2023-01-01T14:44:16.662Z,13.10
2023-01-01T14:46:48.975Z,13.10
2023-01-01T14:49:32.481Z,13.10
2023-01-01T14:52:23.557Z,13.10
2023-01-01T14:54:51.224Z,13.00
2023-01-01T14:57:26.732Z,13.00
2023-01-01T14:59:54.638Z,13.00
2023-01-01T15:02:26.621Z,13.00
2023-01-01T15:04:53.388Z,13.00
2023-01-01T15:07:28.534Z,13.00
2023-01-01T15:10:03.139Z,12.90
2023-01-01T15:12:33.027Z,12.90
2023-01-01T15:14:59.797Z,12.90
2023-01-01T15:17:27.401Z,12.90
2023-01-01T15:20:03.793Z,12.90
2023-01-01T15:22:34.668Z,12.90
2023-01-01T15:25:05.118Z,12.90
2023-01-01T15:27:36.866Z,12.90
2023-01-01T15:30:11.636Z,12.90
2023-01-01T15:32:40.675Z,12.90
2023-01-01T15:35:31.449Z,12.80
2023-01-01T15:38:18.852Z,12.90
2023-01-01T15:40:51.091Z,12.80
2023-01-01T15:43:29.526Z,12.80
2023-01-01T15:46:23.341Z,12.80
2023-01-01T15:48:53.152Z,12.80
2023-01-01T15:51:23.762Z,12.80
2023-01-01T15:53:57.158Z,12.80
2023-01-01T15:56:27.085Z,12.80
2023-01-01T15:59:09.814Z,12.70
2023-01-01T16:01:39.762Z,12.70
2023-01-01T16:04:28.662Z,12.70
2023-01-01T16:06:57.861Z,12.70
2023-01-01T16:09:24.772Z,12.60
2023-01-01T16:11:56.950Z,12.60
2023-01-01T16:14:24.350Z,12.60
2023-01-01T16:16:58.417Z,12.60
2023-01-01T16:19:25.495Z,12.50
2023-01-01T16:21:52.267Z,12.50
2023-01-01T16:24:20.029Z,12.60
2023-01-01T16:26:47.486Z,12.50
2023-01-01T16:29:15.689Z,12.50
2023-01-01T16:31:43.074Z,12.50
2023-01-01T16:34:16.222Z,12.40
2023-01-01T16:36:44.273Z,12.50
2023-01-01T16:39:11.533Z,12.40
2023-01-01T16:41:42.075Z,12.40
2023-01-01T16:44:15.526Z,12.40
2023-01-01T16:46:42.721Z,12.40
2023-01-01T16:49:09.518Z,12.30
2023-01-01T16:51:40.627Z,12.30
2023-01-01T16:54:10.128Z,12.30
2023-01-01T16:56:36.801Z,12.30
2023-01-01T16:59:03.871Z,12.30
2023-01-01T17:01:31.077Z,12.30
2023-01-01T17:03:58.136Z,12.20
2023-01-01T17:06:24.796Z,12.20
2023-01-01T17:08:51.510Z,12.20
2023-01-01T17:11:18.936Z,12.20
2023-01-01T17:13:47.670Z,12.20
2023-01-01T17:16:21.378Z,12.20
2023-01-01T17:19:14.505Z,12.20
2023-01-01T17:21:39.892Z,12.20
2023-01-01T17:24:07.158Z,12.10
2023-01-01T17:26:33.882Z,12.10
2023-01-01T17:29:02.935Z,12.10
2023-01-01T17:31:30.120Z,12.10
2023-01-01T17:33:57.063Z,12.10
2023-01-01T17:36:24.410Z,12.00
2023-01-01T17:38:51.078Z,12.00
2023-01-01T17:41:18.197Z,12.00
2023-01-01T17:43:47.735Z,12.00
2023-01-01T17:46:15.955Z,12.00
2023-01-01T17:48:43.909Z,12.00
2023-01-01T17:51:12.047Z,12.00
2023-01-01T17:53:39.890Z,11.90
2023-01-01T17:56:07.684Z,11.90
2023-01-01T17:58:35.719Z,11.90
2023-01-01T18:01:23.870Z,11.90
2023-01-01T18:04:03.142Z,11.90
2023-01-01T18:06:31.674Z,11.90
2023-01-01T18:09:00.698Z,11.90
2023-01-01T18:11:29.093Z,11.80
2023-01-01T18:14:00.813Z,11.80
2023-01-01T18:16:28.423Z,11.80
2023-01-01T18:18:56.004Z,11.80
2023-01-01T18:21:23.779Z,11.80
2023-01-01T18:23:52.568Z,11.80
2023-01-01T18:26:19.892Z,11.80
2023-01-01T18:28:58.598Z,11.70
2023-01-01T18:31:27.361Z,11.70
2023-01-01T18:33:54.716Z,11.70
2023-01-01T18:36:24.574Z,11.70
2023-01-01T18:39:23.026Z,11.70
2023-01-01T18:42:00.832Z,11.70
2023-01-01T18:44:30.736Z,11.70
2023-01-01T18:47:06.366Z,11.70
2023-01-01T18:49:35.167Z,11.70
2023-01-01T18:52:01.788Z,11.70
2023-01-01T18:54:29.895Z,11.70
2023-01-01T18:57:22.317Z,11.70
2023-01-01T18:59:55.385Z,11.70
2023-01-01T19:02:39.231Z,11.70
2023-01-01T19:05:26.943Z,11.70
2023-01-01T19:08:09.805Z,11.60
2023-01-01T19:10:42.727Z,11.60
2023-01-01T19:13:18.893Z,11.60
2023-01-01T19:15:54.288Z,11.60
2023-01-01T19:18:28.224Z,11.60
2023-01-01T19:21:00.176Z,11.60
2023-01-01T19:23:26.769Z,11.60
2023-01-01T19:25:55.428Z,11.60
2023-01-01T19:28:27.797Z,11.60
2023-01-01T19:30:54.552Z,11.50
2023-01-01T19:33:21.188Z,11.50
2023-01-01T19:35:47.897Z,11.50
2023-01-01T19:38:14.569Z,11.50
2023-01-01T19:40:41.282Z,11.50
2023-01-01T19:43:08.032Z,11.50
2023-01-01T19:45:34.809Z,11.50
2023-01-01T19:48:06.925Z,11.50
2023-01-01T19:50:33.698Z,11.50
2023-01-01T19:53:00.524Z,11.50
2023-01-01T19:55:27.292Z,11.50
2023-01-01T19:57:54.153Z,11.50
2023-01-01T20:00:20.882Z,11.50
2023-01-01T20:02:48.340Z,11.50
2023-01-01T20:05:15.522Z,11.40
2023-01-01T20:07:42.356Z,11.40
2023-01-01T20:10:09.569Z,11.40
2023-01-01T20:12:36.261Z,11.40
2023-01-01T20:15:03.167Z,11.40
2023-01-01T20:17:30.742Z,11.40
2023-01-01T20:19:58.408Z,11.40
2023-01-01T20:22:25.376Z,11.40
2023-01-01T20:24:52.183Z,11.40
2023-01-01T20:27:19.037Z,11.40
2023-01-01T20:29:45.863Z,11.40
2023-01-01T20:32:13.300Z,11.40
2023-01-01T20:34:40.580Z,11.40
2023-01-01T20:37:26.434Z,11.40
2023-01-01T20:39:53.399Z,11.40
2023-01-01T20:42:20.483Z,11.40
2023-01-01T20:44:47.172Z,11.40
2023-01-01T20:47:14.499Z,11.40
2023-01-01T20:49:42.264Z,11.40
2023-01-01T20:52:09.632Z,11.40
2023-01-01T20:54:36.557Z,11.30
2023-01-01T20:57:03.443Z,11.30
2023-01-01T20:59:36.429Z,11.30
2023-01-01T21:02:06.081Z,11.30
2023-01-01T21:04:33.263Z,11.40
2023-01-01T21:06:59.953Z,11.40
2023-01-01T21:09:26.656Z,11.40
2023-01-01T21:11:53.341Z,11.40
2023-01-01T21:14:23.948Z,11.40
2023-01-01T21:16:51.754Z,11.30
2023-01-01T21:19:26.040Z,11.40
2023-01-01T21:21:55.353Z,11.40
2023-01-01T21:24:37.592Z,11.30
2023-01-01T21:27:23.923Z,11.40
2023-01-01T21:29:53.118Z,11.40
2023-01-01T21:32:26.800Z,11.40
2023-01-01T21:34:55.046Z,11.30
2023-01-01T21:37:47.243Z,11.30
2023-01-01T21:40:35.614Z,11.30
2023-01-01T21:43:02.965Z,11.30
2023-01-01T21:45:32.135Z,11.40
2023-01-01T21:48:16.410Z,11.30
2023-01-01T21:50:45.967Z,11.30
2023-01-01T21:53:24.129Z,11.30
2023-01-01T21:56:00.133Z,11.30
2023-01-01T21:58:51.508Z,11.30
2023-01-01T22:01:24.134Z,11.30
2023-01-01T22:04:09.473Z,11.30
2023-01-01T22:06:43.141Z,11.30
2023-01-01T22:09:16.431Z,11.30
2023-01-01T22:11:44.563Z,11.30
2023-01-01T22:14:16.126Z,11.30
2023-01-01T22:16:44.140Z,11.30
2023-01-01T22:19:19.234Z,11.30
2023-01-01T22:21:47.861Z,11.40
2023-01-01T22:24:26.648Z,11.30
2023-01-01T22:26:53.414Z,11.40
2023-01-01T22:29:24.807Z,11.40
2023-01-01T22:32:20.825Z,11.40
2023-01-01T22:34:48.524Z,11.40
2023-01-01T22:37:21.382Z,11.40
2023-01-01T22:39:49.046Z,11.40
2023-01-01T22:42:18.964Z,11.40
2023-01-01T22:44:58.133Z,11.50
2023-01-01T22:47:33.013Z,11.50
2023-01-01T22:50:03.446Z,11.50
2023-01-01T22:52:30.172Z,11.50
2023-01-01T22:55:01.577Z,11.50
2023-01-01T22:57:31.450Z,11.50
2023-01-01T22:59:58.095Z,11.50
2023-01-01T23:02:24.791Z,11.60
2023-01-01T23:04:51.718Z,11.50
2023-01-01T23:07:18.477Z,11.60
2023-01-01T23:09:45.522Z,11.60
2023-01-01T23:12:12.289Z,11.60
2023-01-01T23:15:00.588Z,11.60
2023-01-01T23:17:27.175Z,11.60
2023-01-01T23:20:05.987Z,11.60
2023-01-01T23:22:37.004Z,11.60
2023-01-01T23:25:09.568Z,11.60
2023-01-01T23:27:40.377Z,11.60
2023-01-01T23:30:08.187Z,11.70
2023-01-01T23:32:35.850Z,11.70
2023-01-01T23:35:03.291Z,11.70
2023-01-01T23:37:30.078Z,11.70
2023-01-01T23:39:56.737Z,11.60
2023-01-01T23:42:23.421Z,11.70
2023-01-01T23:44:50.070Z,11.60
2023-01-01T23:47:17.412Z,11.60
2023-01-01T23:49:44.242Z,11.70
2023-01-01T23:52:11.013Z,11.70
2023-01-01T23:54:38.969Z,11.70
2023-01-01T23:57:05.680Z,11.70
2023-01-01T23:59:32.356Z,11.70
